Time;durP1;ratioP1;P1;durP2;ratioP2;P2;SDS_P1;SDS_P2;PMS_P1;PMS_P2;Temp;Humidity;BMP_temperature;BMP_pressure;BME280_temperature;BME280_humidity;BME280_pressure;Samples;Min_cycle;Max_cycle;Signal;HPM_P1;HPM_P2
2022/09/24 00:01:33;;;;;;;8.80;7.27;;;16.50;98.00;;;;;;5014034;28;20473;-83
2022/09/24 00:04:03;;;;;;;8.80;6.47;;;16.50;97.70;;;;;;5013446;28;20445;-83
2022/09/24 00:06:36;;;;;;;6.90;6.20;;;16.50;97.50;;;;;;5009067;28;20487;-83
2022/09/24 00:09:03;;;;;;;7.20;6.47;;;16.40;97.30;;;;;;5008599;28;20454;-82
2022/09/24 00:11:30;;;;;;;7.50;6.23;;;16.40;97.50;;;;;;5006748;28;20498;-82
2022/09/24 00:13:58;;;;;;;9.20;6.57;;;16.40;97.50;;;;;;5008060;28;20911;-82
2022/09/24 00:16:29;;;;;;;8.40;6.67;;;16.50;97.70;;;;;;5007493;28;20473;-81
2022/09/24 00:18:58;;;;;;;7.07;6.37;;;16.40;97.70;;;;;;5013541;28;20473;-84
2022/09/24 00:21:28;;;;;;;7.83;7.00;;;16.40;97.60;;;;;;5010876;28;21184;-85
2022/09/24 00:23:58;;;;;;;7.10;6.40;;;16.40;97.40;;;;;;5013753;28;20462;-81
2022/09/24 00:29:21;;;;;;;6.30;5.70;;;16.20;97.70;;;;;;5014141;28;20469;-81
2022/09/24 00:31:49;;;;;;;7.37;6.60;;;16.20;97.80;;;;;;5011650;28;20481;-83
2022/09/24 00:34:18;;;;;;;7.70;6.30;;;16.10;98.00;;;;;;5015266;28;22711;-82
2022/09/24 00:36:47;;;;;;;8.63;6.23;;;16.20;98.40;;;;;;5024463;28;20449;-84
2022/09/24 00:39:15;;;;;;;7.33;6.50;;;16.20;99.10;;;;;;5014512;28;20481;-81
2022/09/24 00:41:47;;;;;;;7.00;6.27;;;16.00;99.60;;;;;;5017027;28;20519;-83
2022/09/24 00:44:44;;;;;;;8.63;6.30;;;15.80;99.90;;;;;;5011032;28;20468;-82
2022/09/24 00:47:39;;;;;;;6.90;5.70;;;15.70;99.90;;;;;;5005840;28;20481;-81
2022/09/24 00:50:24;;;;;;;7.50;5.60;;;15.70;99.90;;;;;;5015232;28;20470;-81
2022/09/24 00:53:03;;;;;;;8.23;5.93;;;16.00;99.50;;;;;;5021529;28;20501;-82
2022/09/24 00:55:34;;;;;;;8.10;7.03;;;16.10;98.80;;;;;;5024026;28;20485;-82
2022/09/24 00:58:04;;;;;;;7.13;5.77;;;16.10;98.60;;;;;;5026780;28;20457;-83
2022/09/24 01:00:33;;;;;;;7.40;6.70;;;16.00;98.70;;;;;;5024624;28;20485;-82
2022/09/24 01:03:07;;;;;;;6.43;5.83;;;15.80;98.90;;;;;;5025621;28;20476;-83
2022/09/24 01:05:36;;;;;;;5.73;5.20;;;15.80;99.10;;;;;;5025991;28;20537;-83
2022/09/24 01:08:06;;;;;;;5.80;5.30;;;15.70;99.20;;;;;;5017905;28;20458;-81
2022/09/24 01:10:47;;;;;;;6.97;6.43;;;15.90;99.10;;;;;;5027239;28;20469;-83
2022/09/24 01:13:56;;;;;;;6.70;6.10;;;15.90;98.70;;;;;;5016201;28;20513;-83
2022/09/24 01:16:36;;;;;;;7.27;6.07;;;15.80;98.80;;;;;;5007091;28;20549;-84
2022/09/24 01:19:28;;;;;;;8.50;6.33;;;15.90;99.00;;;;;;5013234;28;20484;-83
2022/09/24 01:22:06;;;;;;;7.97;6.20;;;15.90;98.50;;;;;;5012347;28;20603;-83
2022/09/24 01:24:36;;;;;;;7.27;6.13;;;15.80;98.50;;;;;;5009563;28;20530;-81
2022/09/24 01:27:13;;;;;;;8.30;5.80;;;15.80;98.70;;;;;;5016565;28;20452;-83
2022/09/24 01:30:01;;;;;;;7.90;5.70;;;16.00;98.70;;;;;;5017649;28;20480;-82
2022/09/24 01:32:40;;;;;;;8.10;6.00;;;16.00;98.90;;;;;;5014333;28;20485;-81
2022/09/24 01:35:23;;;;;;;7.10;6.40;;;15.90;99.10;;;;;;5029497;28;20443;-81
2022/09/24 01:38:04;;;;;;;6.23;5.63;;;16.00;99.60;;;;;;5039213;28;20476;-81
2022/09/24 01:40:32;;;;;;;6.87;6.17;;;16.10;99.60;;;;;;5042264;28;20465;-84
2022/09/24 01:43:03;;;;;;;7.47;6.70;;;15.90;99.90;;;;;;5033754;28;20484;-84
2022/09/24 01:45:32;;;;;;;8.40;6.37;;;16.10;99.90;;;;;;5035088;28;20455;-83
2022/09/24 01:48:00;;;;;;;7.60;6.63;;;16.00;99.90;;;;;;5019489;28;20478;-82
2022/09/24 01:50:32;;;;;;;6.97;6.27;;;15.80;99.90;;;;;;5017789;28;20543;-83
2022/09/24 01:53:07;;;;;;;7.43;5.40;;;15.80;99.90;;;;;;5015763;28;20568;-82
2022/09/24 01:56:07;;;;;;;7.03;6.33;;;16.00;99.90;;;;;;5018399;28;20476;-82
2022/09/24 01:58:48;;;;;;;7.57;6.37;;;16.20;99.90;;;;;;5010911;28;20564;-83
2022/09/24 02:01:39;;;;;;;7.20;6.60;;;16.00;99.90;;;;;;5032830;28;20585;-83
2022/09/24 02:04:27;;;;;;;6.43;5.80;;;16.00;99.90;;;;;;5018441;28;20457;-83
2022/09/24 02:07:28;;;;;;;8.07;6.47;;;16.10;99.90;;;;;;5015216;28;20462;-83
2022/09/24 02:10:00;;;;;;;7.60;6.13;;;16.00;99.90;;;;;;5014958;28;20607;-83
2022/09/24 02:12:51;;;;;;;6.87;6.27;;;16.00;99.60;;;;;;5019049;28;20465;-83
2022/09/24 02:15:40;;;;;;;7.73;6.27;;;16.20;99.30;;;;;;5019292;28;20455;-82
2022/09/24 02:18:25;;;;;;;6.90;6.30;;;16.10;99.10;;;;;;5016179;28;20453;-80
2022/09/24 02:21:06;;;;;;;8.90;6.50;;;15.90;99.00;;;;;;5018315;28;20474;-81
2022/09/24 02:26:49;;;;;;;7.30;6.60;;;16.00;99.30;;;;;;5017404;28;20449;-81
2022/09/24 02:29:30;;;;;;;6.17;5.57;;;15.80;99.90;;;;;;5022902;28;20489;-83
2022/09/24 02:32:04;;;;;;;7.30;6.60;;;15.70;99.90;;;;;;5024113;28;20477;-83
2022/09/24 02:34:41;;;;;;;7.90;6.53;;;15.80;99.90;;;;;;5022758;28;20454;-81
2022/09/24 02:37:14;;;;;;;6.87;6.27;;;15.80;99.90;;;;;;5022111;28;20565;-84
2022/09/24 02:39:42;;;;;;;6.80;6.10;;;16.00;99.90;;;;;;5020011;28;20527;-82
2022/09/24 02:42:30;;;;;;;8.63;6.30;;;16.00;99.90;;;;;;5017934;28;20480;-84
2022/09/24 02:45:03;;;;;;;6.20;5.60;;;15.80;99.90;;;;;;5022199;28;20454;-83
2022/09/24 02:47:42;;;;;;;6.57;5.80;;;15.70;99.90;;;;;;5015012;28;20446;-80
2022/09/24 02:50:19;;;;;;;7.20;6.50;;;15.80;99.90;;;;;;5013658;28;20462;-82
2022/09/24 02:52:50;;;;;;;6.53;5.83;;;15.80;99.90;;;;;;5013304;28;20481;-81
2022/09/24 02:55:30;;;;;;;6.67;6.07;;;15.80;99.90;;;;;;5014768;28;20618;-82
2022/09/24 02:58:04;;;;;;;7.77;6.20;;;15.80;99.90;;;;;;5015524;28;20449;-82
2022/09/24 03:00:32;;;;;;;7.80;6.33;;;15.80;99.90;;;;;;5017975;28;20513;-81
2022/09/24 03:03:12;;;;;;;7.07;5.43;;;15.60;99.90;;;;;;5018277;28;21189;-82
2022/09/24 03:05:53;;;;;;;6.20;5.70;;;15.50;99.90;;;;;;5026269;28;20556;-82
2022/09/24 03:08:54;;;;;;;6.63;5.87;;;15.40;99.90;;;;;;5024282;28;20473;-82
2022/09/24 03:11:34;;;;;;;7.33;6.47;;;15.30;99.90;;;;;;5013794;28;20486;-82
2022/09/24 03:14:09;;;;;;;7.20;5.90;;;15.40;99.90;;;;;;5014719;28;20461;-82
2022/09/24 03:16:44;;;;;;;7.23;5.90;;;15.30;99.90;;;;;;5010059;28;20607;-80
2022/09/24 03:19:14;;;;;;;7.00;6.37;;;15.40;99.90;;;;;;5025756;28;20508;-83
2022/09/24 03:22:13;;;;;;;6.67;5.10;;;15.40;99.90;;;;;;5012696;28;20488;-84
2022/09/24 03:25:02;;;;;;;6.87;6.17;;;15.20;99.90;;;;;;5004604;28;20837;-82
2022/09/24 03:27:34;;;;;;;6.60;6.00;;;15.30;99.90;;;;;;5010266;28;20450;-82
2022/09/24 03:32:54;;;;;;;6.87;6.17;;;15.40;99.90;;;;;;5011124;28;20565;-83
2022/09/24 03:35:30;;;;;;;6.67;6.07;;;15.40;99.90;;;;;;5010229;28;20550;-83
2022/09/24 03:38:04;;;;;;;6.03;5.37;;;15.40;99.90;;;;;;5023287;28;20587;-82
2022/09/24 03:40:45;;;;;;;6.77;6.17;;;15.30;99.90;;;;;;4976297;28;20502;-83
2022/09/24 03:43:27;;;;;;;12.47;7.33;;;15.10;99.90;;;;;;5007779;28;20477;-83
2022/09/24 03:46:29;;;;;;;6.40;5.80;;;14.90;99.90;;;;;;5024341;28;20453;-83
2022/09/24 03:49:05;;;;;;;6.80;5.70;;;14.70;99.90;;;;;;5008248;28;20490;-83
2022/09/24 03:51:44;;;;;;;6.20;5.60;;;14.60;99.90;;;;;;5013200;28;20468;-81
2022/09/24 03:54:30;;;;;;;6.07;5.60;;;14.50;99.90;;;;;;5024277;28;20461;-81
2022/09/24 03:57:03;;;;;;;6.90;6.20;;;14.40;99.90;;;;;;5008312;28;20591;-83
2022/09/24 04:02:39;;;;;;;6.73;6.03;;;14.30;99.90;;;;;;5021971;28;20727;-82
2022/09/24 04:05:15;;;;;;;7.17;6.47;;;14.40;99.90;;;;;;5022582;28;20437;-82
2022/09/24 04:08:03;;;;;;;7.80;7.10;;;14.40;99.90;;;;;;5011521;28;20960;-81
2022/09/24 04:13:42;;;;;;;6.53;6.00;;;14.40;99.90;;;;;;4970493;28;20479;-83
2022/09/24 04:16:59;;;;;;;6.40;5.80;;;14.30;99.90;;;;;;5007116;28;20557;-81
2022/09/24 04:19:47;;;;;;;6.73;6.03;;;14.30;99.90;;;;;;5008612;28;20477;-83
2022/09/24 04:22:45;;;;;;;6.57;5.87;;;14.30;99.90;;;;;;5014220;28;20460;-83
2022/09/24 04:25:41;;;;;;;6.97;6.33;;;14.60;99.90;;;;;;5006961;28;20572;-83
2022/09/24 04:28:19;;;;;;;7.33;6.73;;;14.50;99.90;;;;;;5008423;28;20877;-84
2022/09/24 04:30:58;;;;;;;8.20;5.80;;;14.40;99.90;;;;;;5018412;28;20461;-81
2022/09/24 04:33:41;;;;;;;6.20;5.60;;;14.20;99.90;;;;;;5005874;28;20441;-80
2022/09/24 04:36:27;;;;;;;5.73;5.23;;;14.10;99.90;;;;;;5017267;28;20511;-81
2022/09/24 04:39:46;;;;;;;6.87;5.70;;;14.50;99.90;;;;;;5019261;28;20515;-83
2022/09/24 04:45:25;;;;;;;8.23;6.33;;;14.30;99.90;;;;;;5015185;28;20495;-80
2022/09/24 04:48:07;;;;;;;6.00;5.50;;;14.30;99.90;;;;;;5014392;28;20517;-82
2022/09/24 04:50:46;;;;;;;5.67;5.00;;;14.60;99.90;;;;;;5021111;28;20487;-81
2022/09/24 04:53:32;;;;;;;6.03;5.53;;;14.70;99.90;;;;;;5020352;28;20473;-83
2022/09/24 04:56:15;;;;;;;5.83;5.33;;;14.70;99.90;;;;;;5015763;28;21938;-83
2022/09/24 04:59:07;;;;;;;7.80;5.60;;;14.60;99.90;;;;;;5015664;28;20512;-82
2022/09/24 05:01:49;;;;;;;6.73;5.83;;;14.30;99.90;;;;;;5017602;28;20481;-80
2022/09/24 05:04:19;;;;;;;12.13;5.83;;;14.20;99.90;;;;;;5019121;28;20492;-81
2022/09/24 05:06:48;;;;;;;6.80;5.17;;;14.10;99.90;;;;;;5007774;28;20923;-83
2022/09/24 05:09:35;;;;;;;5.60;5.10;;;14.50;99.90;;;;;;5013764;28;20493;-82
2022/09/24 05:12:23;;;;;;;5.83;5.20;;;14.40;99.90;;;;;;5009176;28;20484;-83
2022/09/24 05:15:18;;;;;;;5.90;5.27;;;14.50;99.90;;;;;;5013816;28;20449;-83
2022/09/24 05:17:58;;;;;;;6.63;5.37;;;14.50;99.90;;;;;;5015867;28;20854;-82
2022/09/24 05:20:27;;;;;;;5.20;4.80;;;14.50;99.90;;;;;;5044625;28;20519;-82
2022/09/24 05:23:19;;;;;;;5.60;4.53;;;14.40;99.90;;;;;;5013495;28;21008;-82
2022/09/24 05:28:59;;;;;;;7.10;5.07;;;14.60;99.90;;;;;;5014866;28;20465;-82
2022/09/24 05:32:01;;;;;;;6.90;6.30;;;14.50;99.90;;;;;;5014909;28;20483;-82
2022/09/24 05:34:49;;;;;;;5.70;5.30;;;14.40;99.90;;;;;;5025721;28;20468;-83
2022/09/24 05:37:28;;;;;;;6.30;5.70;;;14.40;99.90;;;;;;5011782;28;20523;-83
2022/09/24 05:46:31;;;;;;;5.73;5.23;;;14.30;99.90;;;;;;5010150;28;20452;-83
2022/09/24 05:51:57;;;;;;;5.83;5.23;;;14.50;99.90;;;;;;5000805;28;20478;-84
2022/09/24 05:54:33;;;;;;;6.37;5.70;;;14.40;99.90;;;;;;5014188;28;20535;-83
2022/09/24 06:00:31;;;;;;;5.77;4.80;;;14.60;99.90;;;;;;5010187;28;21407;-83
2022/09/24 06:03:47;;;;;;;8.03;5.10;;;14.60;99.90;;;;;;5022378;28;20470;-83
2022/09/24 06:06:30;;;;;;;7.50;6.00;;;14.70;99.90;;;;;;5032725;28;20449;-81
2022/09/24 06:09:13;;;;;;;8.40;5.90;;;14.60;99.90;;;;;;5014316;28;20448;-81
2022/09/24 06:12:14;;;;;;;6.40;5.70;;;14.50;99.90;;;;;;5017980;28;20489;-84
2022/09/24 06:15:08;;;;;;;7.80;5.73;;;14.70;99.90;;;;;;5024527;28;20453;-84
2022/09/24 06:17:59;;;;;;;7.57;5.60;;;14.60;99.90;;;;;;4994714;28;20932;-83
2022/09/24 06:20:53;;;;;;;6.20;5.63;;;14.70;99.90;;;;;;5041549;28;20493;-83
2022/09/24 06:23:34;;;;;;;8.10;5.57;;;14.60;99.90;;;;;;5041059;28;20488;-83
2022/09/24 06:26:07;;;;;;;6.57;5.97;;;14.70;99.90;;;;;;5043337;28;20480;-82
2022/09/24 06:28:36;;;;;;;8.40;5.97;;;14.70;99.90;;;;;;5033871;28;20452;-81
2022/09/24 06:31:06;;;;;;;6.90;6.23;;;14.70;99.90;;;;;;5044415;28;20476;-82
2022/09/24 06:33:47;;;;;;;7.30;6.10;;;14.60;99.90;;;;;;5019512;28;20948;-84
2022/09/24 06:36:26;;;;;;;6.40;5.80;;;14.60;99.90;;;;;;5017349;28;20466;-83
2022/09/24 06:38:58;;;;;;;6.40;5.80;;;14.50;99.90;;;;;;5018529;28;20499;-83
2022/09/24 06:41:25;;;;;;;8.20;5.73;;;14.50;99.90;;;;;;5017885;28;20581;-84
2022/09/24 06:43:57;;;;;;;7.63;6.07;;;14.70;99.90;;;;;;5029658;28;20453;-84
2022/09/24 06:46:37;;;;;;;7.17;6.10;;;14.40;99.90;;;;;;5028743;28;20464;-83
2022/09/24 06:49:11;;;;;;;6.73;6.13;;;14.50;99.90;;;;;;5031440;28;20583;-85
2022/09/24 06:51:44;;;;;;;7.27;6.47;;;14.40;99.90;;;;;;5014392;28;22005;-84
2022/09/24 06:54:20;;;;;;;6.07;5.47;;;14.40;99.90;;;;;;5012902;28;20509;-84
2022/09/24 06:56:52;;;;;;;6.33;5.73;;;14.30;99.90;;;;;;5012463;28;20462;-84
2022/09/24 06:59:36;;;;;;;6.73;6.03;;;14.20;99.90;;;;;;5015482;28;20441;-83
2022/09/24 07:02:13;;;;;;;9.00;7.97;;;14.40;99.90;;;;;;5016159;28;20491;-83
2022/09/24 07:04:44;;;;;;;7.00;6.40;;;14.40;99.90;;;;;;5012249;28;20461;-84
2022/09/24 07:07:32;;;;;;;7.27;6.57;;;14.70;99.90;;;;;;5016115;28;20897;-83
2022/09/24 07:10:07;;;;;;;7.10;6.40;;;14.80;99.90;;;;;;5015694;28;20964;-84
2022/09/24 07:12:43;;;;;;;8.43;6.10;;;14.70;99.90;;;;;;5009610;28;20544;-83
2022/09/24 07:15:14;;;;;;;7.00;6.30;;;14.70;99.90;;;;;;5010671;28;21152;-84
2022/09/24 07:17:44;;;;;;;7.00;6.30;;;14.40;99.90;;;;;;5010387;28;20492;-83
2022/09/24 07:20:17;;;;;;;7.30;6.60;;;14.30;99.90;;;;;;5010767;28;20486;-83
2022/09/24 07:22:44;;;;;;;6.73;5.80;;;14.40;99.90;;;;;;5015658;28;20666;-83
2022/09/24 07:25:16;;;;;;;7.13;6.43;;;14.30;99.90;;;;;;5017627;28;21495;-84
2022/09/24 07:27:48;;;;;;;7.07;5.97;;;14.40;99.90;;;;;;5013607;28;20446;-83
2022/09/24 07:30:18;;;;;;;6.60;6.10;;;14.40;99.90;;;;;;5015331;28;20515;-82
2022/09/24 07:32:49;;;;;;;7.20;6.50;;;14.50;99.90;;;;;;5020542;28;20582;-81
2022/09/24 07:35:17;;;;;;;7.40;6.80;;;14.80;99.90;;;;;;5024567;28;20688;-82
2022/09/24 07:37:46;;;;;;;6.67;6.13;;;14.70;99.90;;;;;;5025659;28;20454;-81
2022/09/24 07:40:18;;;;;;;6.77;6.13;;;14.70;99.90;;;;;;5027929;28;20481;-83
2022/09/24 07:42:48;;;;;;;7.23;6.40;;;14.90;99.90;;;;;;5022318;28;20999;-82
2022/09/24 07:45:20;;;;;;;7.90;7.10;;;14.80;99.90;;;;;;5021526;28;20456;-82
2022/09/24 07:48:05;;;;;;;7.30;6.60;;;15.10;99.90;;;;;;5018945;28;20455;-84
2022/09/24 07:50:40;;;;;;;7.47;6.70;;;15.20;99.90;;;;;;5016878;28;20473;-83
2022/09/24 07:53:20;;;;;;;7.97;7.17;;;15.10;99.90;;;;;;5016398;28;20479;-83
2022/09/24 07:55:51;;;;;;;8.73;6.77;;;15.00;99.90;;;;;;5032684;28;20453;-82
2022/09/24 07:58:24;;;;;;;7.63;6.60;;;15.00;99.90;;;;;;5017468;28;20465;-83
2022/09/24 08:01:02;;;;;;;7.87;7.07;;;15.00;99.90;;;;;;5042540;28;20508;-83
2022/09/24 08:03:34;;;;;;;7.50;6.80;;;15.00;99.90;;;;;;5026555;28;20478;-84
2022/09/24 08:06:08;;;;;;;14.67;13.03;;;14.90;99.90;;;;;;5020958;28;20449;-84
2022/09/24 08:08:55;;;;;;;7.00;6.40;;;15.10;99.90;;;;;;5023250;28;20500;-83
2022/09/24 08:11:33;;;;;;;8.30;7.00;;;15.20;99.90;;;;;;5017135;28;20480;-83
2022/09/24 08:14:00;;;;;;;7.93;6.90;;;15.30;99.90;;;;;;5018510;28;20472;-83
2022/09/24 08:16:33;;;;;;;7.80;6.97;;;15.40;99.90;;;;;;5018782;28;20474;-82
2022/09/24 08:19:12;;;;;;;8.67;7.50;;;15.40;99.90;;;;;;5020398;28;20503;-84
2022/09/24 08:21:42;;;;;;;7.60;6.93;;;15.50;99.90;;;;;;5024052;28;20489;-83
2022/09/24 08:24:11;;;;;;;8.23;7.30;;;15.50;99.90;;;;;;5020913;28;20453;-82
2022/09/24 08:26:39;;;;;;;8.03;6.67;;;15.60;99.90;;;;;;5013061;28;20473;-83
2022/09/24 08:29:06;;;;;;;9.10;8.17;;;15.80;99.40;;;;;;5015255;28;20618;-83
2022/09/24 08:31:40;;;;;;;8.63;7.03;;;15.90;99.10;;;;;;5011841;28;20481;-83
2022/09/24 08:34:11;;;;;;;8.63;6.80;;;15.90;99.20;;;;;;5029273;28;20472;-84
2022/09/24 08:36:40;;;;;;;8.63;7.43;;;16.10;98.90;;;;;;5013012;28;20469;-82
2022/09/24 08:39:38;;;;;;;7.27;6.40;;;16.20;98.80;;;;;;5044718;28;20531;-82
2022/09/24 08:42:24;;;;;;;7.90;7.20;;;16.30;98.10;;;;;;5018372;28;20599;-84
2022/09/24 08:48:09;;;;;;;9.97;7.40;;;16.30;97.90;;;;;;5020755;28;20547;-85
2022/09/24 08:51:03;;;;;;;12.30;7.97;;;16.10;98.30;;;;;;5028172;28;20481;-83
2022/09/24 08:53:49;;;;;;;8.40;7.10;;;16.50;98.30;;;;;;5023601;28;20527;-82
2022/09/24 08:56:24;;;;;;;7.43;6.73;;;16.30;98.00;;;;;;5024125;28;20453;-82
2022/09/24 08:59:29;;;;;;;7.50;6.37;;;16.50;98.30;;;;;;5025865;28;20450;-83
2022/09/24 09:01:56;;;;;;;7.47;6.63;;;16.90;97.50;;;;;;5017378;28;22565;-83
2022/09/24 09:04:36;;;;;;;8.80;7.90;;;17.00;97.00;;;;;;5020606;28;20457;-83
2022/09/24 09:07:13;;;;;;;10.27;8.13;;;17.10;96.50;;;;;;5034451;28;20969;-83
2022/09/24 09:09:47;;;;;;;9.37;8.47;;;17.10;96.60;;;;;;5023874;28;20457;-84
2022/09/24 09:12:22;;;;;;;11.57;8.30;;;17.20;96.60;;;;;;5020473;28;20465;-82
2022/09/24 09:15:04;;;;;;;9.57;8.50;;;17.10;96.70;;;;;;5029620;28;20453;-83
2022/09/24 09:17:41;;;;;;;9.57;8.03;;;17.30;96.30;;;;;;5026937;28;20441;-82
2022/09/24 09:20:21;;;;;;;8.87;7.97;;;17.10;96.20;;;;;;5042573;28;20464;-83
2022/09/24 09:22:52;;;;;;;9.23;8.43;;;17.10;96.70;;;;;;5025822;28;20475;-81
2022/09/24 09:25:29;;;;;;;9.77;8.77;;;17.20;96.90;;;;;;5026763;28;20437;-83
2022/09/24 09:28:13;;;;;;;10.47;9.47;;;17.40;97.00;;;;;;5027401;28;20452;-83
2022/09/24 09:30:55;;;;;;;12.03;9.47;;;17.10;96.70;;;;;;5026547;28;20473;-83
2022/09/24 09:33:38;;;;;;;10.57;9.47;;;17.10;96.90;;;;;;5026400;28;20476;-83
2022/09/24 09:36:33;;;;;;;11.47;9.17;;;17.20;96.80;;;;;;5045353;28;20485;-83
2022/09/24 09:39:32;;;;;;;10.40;9.33;;;17.80;96.50;;;;;;5021986;28;20939;-83
2022/09/24 09:42:21;;;;;;;11.93;9.67;;;18.30;95.20;;;;;;5027059;28;20473;-83
2022/09/24 09:44:49;;;;;;;10.73;8.97;;;18.40;95.00;;;;;;5026784;28;20454;-82
2022/09/24 09:47:18;;;;;;;9.73;8.73;;;18.50;94.40;;;;;;5025338;28;22297;-82
2022/09/24 09:49:47;;;;;;;11.10;9.90;;;18.40;94.30;;;;;;5024075;28;20458;-83
2022/09/24 09:52:19;;;;;;;12.83;11.57;;;18.70;93.90;;;;;;5041652;28;20550;-82
2022/09/24 09:54:47;;;;;;;12.93;10.43;;;18.30;93.90;;;;;;5030061;28;20444;-86
2022/09/24 09:57:17;;;;;;;12.77;11.17;;;18.10;94.80;;;;;;5020965;28;20469;-83
2022/09/24 09:59:49;;;;;;;12.83;11.17;;;18.00;94.80;;;;;;5016744;28;20473;-84
2022/09/24 10:02:40;;;;;;;16.93;12.07;;;18.00;95.50;;;;;;5020496;28;20488;-82
2022/09/24 10:05:22;;;;;;;16.77;12.87;;;17.90;95.60;;;;;;5028191;28;20465;-83
2022/09/24 10:07:53;;;;;;;16.63;13.70;;;18.40;95.00;;;;;;5015188;28;20453;-82
2022/09/24 10:10:23;;;;;;;16.30;14.60;;;18.50;94.50;;;;;;5024915;28;21094;-83
2022/09/24 10:13:11;;;;;;;17.47;14.37;;;18.20;94.20;;;;;;5029484;28;20492;-83
2022/09/24 10:15:52;;;;;;;20.73;14.30;;;18.20;94.70;;;;;;5019252;28;20457;-83
2022/09/24 10:18:33;;;;;;;17.43;15.63;;;18.20;94.50;;;;;;5026909;28;20426;-82
2022/09/24 10:21:13;;;;;;;15.93;14.43;;;17.90;95.30;;;;;;5031530;28;20477;-85
2022/09/24 10:24:00;;;;;;;18.83;14.97;;;18.00;95.70;;;;;;5029618;28;20978;-84
2022/09/24 10:26:45;;;;;;;17.10;15.03;;;18.10;95.60;;;;;;5040743;28;20469;-80
2022/09/24 10:35:37;;;;;;;18.07;16.00;;;17.80;96.20;;;;;;5048924;28;20433;-82
2022/09/24 10:39:16;;;;;;;16.33;14.50;;;17.70;96.40;;;;;;5056841;28;20441;-83
2022/09/24 10:42:36;;;;;;;17.33;15.33;;;17.60;96.50;;;;;;5024120;28;20493;-84
2022/09/24 10:49:39;;;;;;;20.13;13.60;;;17.40;97.10;;;;;;5013552;28;20458;-83
2022/09/24 10:52:38;;;;;;;16.33;14.33;;;17.60;97.20;;;;;;5025960;28;20548;-83
2022/09/24 10:56:10;;;;;;;;;;;;;;;;;;;;;
2022/09/24 11:03:29;;;;;;;;;;;;;;;;;;;;;
2022/09/24 11:06:34;;;;;;;16.40;14.30;;;17.40;97.20;;;;;;4940177;29;20465;-83
2022/09/24 11:13:32;;;;;;;15.40;13.80;;;17.50;98.00;;;;;;4936829;28;20542;-83
2022/09/24 11:16:37;;;;;;;;;;;;;;;;;;;;;
2022/09/24 11:19:33;;;;;;;18.63;15.70;;;17.70;97.30;;;;;;4921840;29;20476;-83
2022/09/24 11:23:12;;;;;;;18.37;15.00;;;17.80;96.80;;;;;;4917909;29;20498;-84
2022/09/24 11:26:42;;;;;;;19.53;15.40;;;17.60;97.00;;;;;;4881482;28;20463;-84
2022/09/24 11:34:05;;;;;;;18.50;15.97;;;17.70;97.20;;;;;;4957969;28;20457;-84
2022/09/24 11:44:30;;;;;;;16.60;13.20;;;18.10;97.20;;;;;;4957380;28;20889;-84
2022/09/24 11:47:38;;;;;;;21.50;14.20;;;17.90;96.90;;;;;;4950463;28;20440;-84
2022/09/24 11:59:04;;;;;;;20.27;13.80;;;18.60;95.10;;;;;;4959068;28;20448;-83
2022/09/24 12:06:24;;;;;;;13.83;12.30;;;18.70;93.80;;;;;;4892250;29;20455;-83
2022/09/24 12:13:51;;;;;;;12.83;10.90;;;18.40;95.60;;;;;;4907682;28;20472;-84
2022/09/24 12:17:04;;;;;;;;;;;;;;;;;;;;;
2022/09/24 12:20:54;;;;;;;12.07;10.70;;;18.70;94.30;;;;;;4871629;29;20429;-84
2022/09/24 12:24:27;;;;;;;13.83;10.40;;;18.70;93.70;;;;;;4860099;29;20444;-84
2022/09/24 12:35:42;;;;;;;10.47;9.37;;;18.40;94.80;;;;;;4889685;29;20462;-83
2022/09/24 12:38:47;;;;;;;16.20;13.30;;;18.70;94.00;;;;;;4830601;29;20456;-85
2022/09/24 12:44:53;;;;;;;10.53;9.43;;;18.60;94.10;;;;;;3268339;26;20492;-84
2022/09/24 12:51:47;;;;;;;;;;;;;;;;;;;;;
2022/09/24 12:55:23;;;;;;;10.73;8.90;;;18.90;93.70;;;;;;4956212;28;20439;-85
2022/09/24 13:02:16;;;;;;;8.80;7.90;;;19.10;93.10;;;;;;4917431;29;20512;-83
2022/09/24 13:05:59;;;;;;;10.53;8.60;;;19.10;92.70;;;;;;4868141;29;21192;-85
2022/09/24 13:09:34;;;;;;;;;;;;;;;;;;;;;
2022/09/24 13:13:13;;;;;;;7.70;6.80;;;18.60;93.30;;;;;;4929116;28;20476;-84
2022/09/24 13:23:48;;;;;;;9.10;7.77;;;19.00;92.40;;;;;;4919233;28;20587;-82
2022/09/24 13:27:15;;;;;;;9.20;8.37;;;19.30;91.70;;;;;;4939694;28;20498;-84
2022/09/24 13:30:35;;;;;;;11.53;9.53;;;19.00;92.20;;;;;;4959377;28;20457;-81
2022/09/24 13:34:08;;;;;;;9.33;8.03;;;19.00;92.70;;;;;;5004503;28;20475;-83
2022/09/24 13:37:25;;;;;;;9.30;7.70;;;19.00;92.90;;;;;;5012191;28;20464;-83
2022/09/24 13:41:00;;;;;;;;;;;;;;;;;;;;;
2022/09/24 13:45:02;;;;;;;9.40;8.33;;;18.90;92.80;;;;;;4978894;28;20472;-84
2022/09/24 13:48:34;;;;;;;9.63;7.93;;;18.90;92.60;;;;;;5008758;28;20492;-85
2022/09/24 13:51:53;;;;;;;9.23;7.70;;;18.60;93.20;;;;;;5004849;28;20457;-84
2022/09/24 13:55:00;;;;;;;8.93;7.80;;;18.80;93.40;;;;;;4946688;28;20584;-84
2022/09/24 13:58:08;;;;;;;9.30;8.30;;;18.90;93.50;;;;;;4952541;28;20450;-83
2022/09/24 14:01:05;;;;;;;8.90;7.50;;;18.70;93.40;;;;;;4960317;28;20445;-82
2022/09/24 14:04:51;;;;;;;;;;;;;;;;;;;;;
2022/09/24 14:08:10;;;;;;;;;;;;;;;;;;;;;
2022/09/24 14:15:55;;;;;;;8.40;7.60;;;18.60;93.00;;;;;;4947341;28;20496;-84
2022/09/24 14:18:17;;;;;;;7.30;6.60;;;18.70;92.70;;;;;;4915981;28;20457;-83
2022/09/24 14:21:27;;;;;;;9.03;7.90;;;18.80;92.70;;;;;;4945519;28;20444;-84
2022/09/24 14:24:15;;;;;;;10.50;9.17;;;18.70;92.80;;;;;;4946291;28;20535;-84
2022/09/24 14:27:06;;;;;;;9.33;6.70;;;18.70;92.70;;;;;;4995485;28;20850;-84
2022/09/24 14:29:50;;;;;;;7.70;7.00;;;18.90;92.60;;;;;;4996438;28;20445;-84
2022/09/24 14:32:30;;;;;;;7.97;7.17;;;18.70;92.80;;;;;;4996783;28;20508;-84
2022/09/24 14:35:31;;;;;;;10.60;9.43;;;18.80;93.00;;;;;;5010003;28;20996;-84
2022/09/24 14:38:33;;;;;;;10.40;8.47;;;19.20;92.10;;;;;;4995776;28;20489;-83
2022/09/24 14:41:52;;;;;;;9.43;8.40;;;19.10;92.30;;;;;;5013133;28;20482;-83
2022/09/24 14:44:47;;;;;;;9.70;8.80;;;19.10;92.30;;;;;;5026662;28;20457;-82
2022/09/24 14:48:12;;;;;;;10.60;8.70;;;19.30;92.40;;;;;;5032328;28;20446;-82
2022/09/24 14:50:47;;;;;;;9.73;8.83;;;19.40;92.10;;;;;;5005512;28;20457;-84
2022/09/24 14:53:40;;;;;;;12.70;9.87;;;19.30;92.30;;;;;;5034957;28;20485;-83
2022/09/24 14:56:35;;;;;;;12.13;9.33;;;19.10;92.30;;;;;;5032067;28;20477;-82
2022/09/24 14:59:40;;;;;;;10.73;8.90;;;18.70;93.10;;;;;;5008550;28;20468;-84
2022/09/24 15:02:32;;;;;;;10.27;9.27;;;18.70;94.00;;;;;;4995099;28;20576;-83
2022/09/24 15:08:35;;;;;;;11.63;9.30;;;18.50;94.40;;;;;;4972705;28;20535;-85
2022/09/24 15:11:33;;;;;;;11.17;9.50;;;18.60;94.50;;;;;;4990627;22;20982;-83
2022/09/24 15:14:41;;;;;;;12.13;10.83;;;19.00;94.10;;;;;;4997867;28;20449;-85
2022/09/24 15:17:40;;;;;;;10.07;9.07;;;18.90;93.60;;;;;;5014300;28;21240;-85
2022/09/24 15:20:50;;;;;;;10.67;9.53;;;18.90;94.20;;;;;;5027037;28;20508;-85
2022/09/24 15:23:46;;;;;;;11.43;8.70;;;18.90;94.10;;;;;;5003824;28;20517;-85
2022/09/24 15:27:11;;;;;;;10.10;9.10;;;18.70;94.30;;;;;;5014407;28;20936;-83
2022/09/24 15:30:16;;;;;;;10.13;9.13;;;18.60;94.20;;;;;;5001925;28;20441;-83
2022/09/24 15:32:57;;;;;;;9.83;8.83;;;18.80;94.60;;;;;;4996421;28;20474;-84
2022/09/24 15:43:05;;;;;;;10.63;9.53;;;18.30;95.50;;;;;;4978263;28;20472;-83
2022/09/24 15:45:45;;;;;;;11.07;8.80;;;18.20;95.60;;;;;;4966860;28;20513;-84
2022/09/24 15:51:36;;;;;;;8.63;7.73;;;18.40;95.20;;;;;;4960678;28;20635;-84
2022/09/24 15:54:27;;;;;;;8.50;7.60;;;18.60;95.30;;;;;;4945452;28;20533;-83
2022/09/24 15:57:21;;;;;;;9.13;8.23;;;18.80;95.40;;;;;;4943104;28;20468;-83
2022/09/24 16:00:15;;;;;;;9.60;8.53;;;18.70;95.80;;;;;;4957776;28;20578;-85
2022/09/24 16:03:00;;;;;;;11.90;8.60;;;18.60;96.30;;;;;;4956206;28;20494;-82
2022/09/24 16:06:13;;;;;;;9.47;8.33;;;18.50;96.80;;;;;;4949848;28;20456;-85
2022/09/24 16:11:54;;;;;;;11.90;8.83;;;18.30;97.10;;;;;;4996450;28;20905;-83
2022/09/24 16:15:08;;;;;;;10.67;8.77;;;18.50;97.60;;;;;;4999055;28;20492;-82
2022/09/24 16:17:54;;;;;;;11.00;9.47;;;18.40;97.90;;;;;;5010962;28;20474;-85
2022/09/24 16:21:10;;;;;;;10.13;8.80;;;18.20;98.50;;;;;;4997932;28;20481;-84
2022/09/24 16:24:09;;;;;;;12.53;9.00;;;18.20;98.70;;;;;;4997917;28;20482;-84
2022/09/24 16:26:58;;;;;;;11.10;9.40;;;18.30;98.80;;;;;;4998010;28;20544;-84
2022/09/24 16:30:06;;;;;;;56.90;30.40;;;18.40;98.90;;;;;;4907399;29;20521;-82
2022/09/24 16:32:37;;;;;;;25.77;16.13;;;18.20;99.00;;;;;;4921126;29;20494;-82
2022/09/24 16:35:23;;;;;;;21.07;13.83;;;18.00;99.30;;;;;;4908525;29;20472;-82
2022/09/24 16:37:56;;;;;;;9.90;8.43;;;17.90;99.60;;;;;;4928140;29;20520;-82
2022/09/24 16:40:39;;;;;;;11.00;8.13;;;18.00;99.20;;;;;;4908317;29;22469;-83
2022/09/24 16:43:09;;;;;;;9.37;8.40;;;17.90;99.10;;;;;;4920102;29;20493;-83
2022/09/24 16:45:38;;;;;;;9.60;8.13;;;17.70;99.40;;;;;;4927316;29;20493;-81